Time;durP1;ratioP1;P1;durP2;ratioP2;P2;SDS_P1;SDS_P2;PMS_P1;PMS_P2;Temp;Humidity;BMP_temperature;BMP_pressure;BME280_temperature;BME280_humidity;BME280_pressure;Samples;Min_cycle;Max_cycle;Signal;HPM_P1;HPM_P2
2023/03/04 00:00:11;;;;;;;56.50;24.27;;;9.30;91.10;;;;;;4951372;28;20250;-78
2023/03/04 00:02:39;;;;;;;52.07;23.47;;;9.30;91.00;;;;;;4948093;28;20206;-78
2023/03/04 00:05:08;;;;;;;46.37;23.53;;;9.30;91.10;;;;;;4954191;28;20273;-77
2023/03/04 00:07:37;;;;;;;50.67;22.93;;;9.30;91.10;;;;;;4957060;28;20198;-78
2023/03/04 00:10:06;;;;;;;49.83;22.97;;;9.30;91.20;;;;;;4954991;28;20289;-77
2023/03/04 00:12:35;;;;;;;50.27;23.53;;;9.30;91.10;;;;;;4960908;28;20261;-78
2023/03/04 00:15:08;;;;;;;45.63;23.33;;;9.30;91.10;;;;;;4953158;28;20186;-78
2023/03/04 00:17:36;;;;;;;46.37;23.50;;;9.20;91.10;;;;;;4954677;28;20277;-77
2023/03/04 00:20:05;;;;;;;46.70;23.20;;;9.30;91.10;;;;;;4953647;28;20218;-79
2023/03/04 00:22:34;;;;;;;44.93;23.03;;;9.30;91.10;;;;;;4949685;28;20264;-78
2023/03/04 00:25:02;;;;;;;53.22;27.42;;;9.30;91.00;;;;;;4955989;28;20514;-78
2023/03/04 00:27:31;;;;;;;46.37;24.87;;;9.30;91.20;;;;;;4947303;28;20211;-78
2023/03/04 00:29:59;;;;;;;46.73;23.43;;;9.30;91.20;;;;;;4953990;28;20940;-78
2023/03/04 00:32:29;;;;;;;46.27;23.20;;;9.30;91.50;;;;;;4958834;28;20206;-78
2023/03/04 00:34:58;;;;;;;49.20;22.37;;;9.40;91.10;;;;;;4951339;28;20198;-79
2023/03/04 00:37:26;;;;;;;45.53;23.13;;;9.40;91.10;;;;;;4951872;28;20620;-78
2023/03/04 00:39:55;;;;;;;45.00;22.77;;;9.40;91.00;;;;;;4960704;28;20218;-78
2023/03/04 00:42:23;;;;;;;47.87;21.97;;;9.40;91.00;;;;;;4959202;28;20206;-78
2023/03/04 00:44:51;;;;;;;49.00;22.93;;;9.40;91.00;;;;;;4954513;28;20625;-77
2023/03/04 00:47:20;;;;;;;49.03;24.60;;;9.40;91.00;;;;;;4951431;28;20195;-77
2023/03/04 00:49:52;;;;;;;52.60;23.90;;;9.40;91.10;;;;;;4921968;29;20202;-79
2023/03/04 00:52:20;;;;;;;50.10;24.07;;;9.30;91.20;;;;;;4946927;28;20211;-78
2023/03/04 00:54:50;;;;;;;51.47;23.73;;;9.30;91.10;;;;;;4960056;28;20202;-78
2023/03/04 00:57:18;;;;;;;52.83;23.57;;;9.30;91.00;;;;;;4954943;28;20670;-78
2023/03/04 00:59:47;;;;;;;53.27;24.53;;;9.30;91.20;;;;;;4949792;28;20200;-78
2023/03/04 01:02:15;;;;;;;50.43;24.03;;;9.30;91.20;;;;;;4950931;28;20206;-79
2023/03/04 01:04:44;;;;;;;48.83;25.00;;;9.30;91.20;;;;;;4955950;28;20290;-79
2023/03/04 01:07:14;;;;;;;50.57;25.20;;;9.20;91.40;;;;;;4961637;28;20210;-78
2023/03/04 01:09:42;;;;;;;54.47;25.27;;;9.30;91.30;;;;;;4963639;28;20195;-79
2023/03/04 01:12:10;;;;;;;53.70;24.40;;;9.20;91.40;;;;;;4957903;28;20238;-77
2023/03/04 01:14:39;;;;;;;44.10;24.00;;;9.20;91.50;;;;;;4959631;28;20230;-78
2023/03/04 01:17:07;;;;;;;52.80;24.67;;;9.20;91.60;;;;;;4953578;28;20554;-79
2023/03/04 01:19:35;;;;;;;53.27;24.13;;;9.20;91.50;;;;;;4952624;28;20211;-78
2023/03/04 01:22:04;;;;;;;51.43;24.30;;;9.10;91.60;;;;;;4958385;28;20215;-78
2023/03/04 01:24:34;;;;;;;56.87;25.27;;;9.10;91.70;;;;;;4958540;28;20209;-78
2023/03/04 01:27:02;;;;;;;49.63;23.83;;;9.10;91.70;;;;;;4955852;28;20207;-77
2023/03/04 01:29:31;;;;;;;48.10;22.87;;;9.10;91.70;;;;;;4965406;28;20214;-78
2023/03/04 01:31:59;;;;;;;50.67;25.60;;;9.10;91.80;;;;;;4949127;28;20252;-78
2023/03/04 01:34:27;;;;;;;55.53;25.13;;;9.10;91.80;;;;;;4960188;28;20273;-79
2023/03/04 01:36:56;;;;;;;55.23;25.87;;;9.00;92.00;;;;;;4955480;28;20202;-77
2023/03/04 01:39:24;;;;;;;53.10;24.20;;;9.00;92.00;;;;;;4959315;28;20202;-77
2023/03/04 01:41:54;;;;;;;49.47;23.43;;;9.00;92.00;;;;;;4952697;29;20205;-77
2023/03/04 01:44:23;;;;;;;52.80;23.67;;;9.00;92.00;;;;;;4956206;29;20202;-77
2023/03/04 01:46:54;;;;;;;49.17;23.30;;;9.00;92.10;;;;;;4952751;28;20647;-78
2023/03/04 01:49:23;;;;;;;50.67;23.20;;;8.90;92.20;;;;;;4955471;28;20202;-79
2023/03/04 01:51:54;;;;;;;50.57;23.23;;;8.90;92.10;;;;;;4956528;28;20196;-78
2023/03/04 01:54:23;;;;;;;52.27;23.50;;;8.90;92.20;;;;;;4960864;28;20207;-78
2023/03/04 01:56:55;;;;;;;49.17;23.33;;;8.90;92.10;;;;;;4947066;28;20207;-78
2023/03/04 01:59:24;;;;;;;53.00;24.03;;;8.90;92.20;;;;;;4951412;28;20637;-78
2023/03/04 02:01:56;;;;;;;50.93;23.70;;;9.00;92.10;;;;;;4947792;28;20221;-78
2023/03/04 02:04:29;;;;;;;44.97;22.73;;;9.10;92.10;;;;;;4920021;28;20564;-78
2023/03/04 02:06:59;;;;;;;47.37;22.83;;;9.10;92.10;;;;;;4955050;28;20234;-78
2023/03/04 02:09:29;;;;;;;54.77;24.93;;;9.10;92.00;;;;;;4952910;28;20210;-78
2023/03/04 02:12:00;;;;;;;51.27;23.30;;;9.20;92.00;;;;;;4949722;28;20699;-76
2023/03/04 02:14:28;;;;;;;49.67;23.33;;;9.20;91.90;;;;;;4955481;28;20203;-77
2023/03/04 02:16:57;;;;;;;51.00;24.53;;;9.20;91.90;;;;;;4955606;28;20710;-77
2023/03/04 02:19:40;;;;;;;46.13;23.70;;;9.10;91.90;;;;;;4947614;28;20234;-77
2023/03/04 02:22:09;;;;;;;52.50;24.33;;;9.10;91.90;;;;;;4958721;28;20297;-78
2023/03/04 02:24:45;;;;;;;47.67;22.50;;;9.10;91.90;;;;;;4968568;28;20206;-78
2023/03/04 02:27:15;;;;;;;45.80;22.90;;;9.10;91.90;;;;;;4950706;28;20209;-78
2023/03/04 02:29:44;;;;;;;47.17;22.77;;;9.10;91.80;;;;;;4964132;28;20663;-78
2023/03/04 02:32:14;;;;;;;45.67;23.23;;;9.20;91.90;;;;;;4956219;28;20202;-78
2023/03/04 02:34:47;;;;;;;47.40;22.17;;;9.20;91.80;;;;;;4958176;28;20202;-79
2023/03/04 02:37:16;;;;;;;49.47;22.33;;;9.20;91.80;;;;;;4946523;28;20198;-78
2023/03/04 02:39:46;;;;;;;46.43;22.77;;;9.20;91.70;;;;;;4947780;28;20234;-78
2023/03/04 02:42:18;;;;;;;50.27;24.40;;;9.30;91.80;;;;;;4954497;28;20593;-78
2023/03/04 02:44:49;;;;;;;50.50;22.87;;;9.30;91.70;;;;;;4955386;28;20667;-78
2023/03/04 02:47:18;;;;;;;44.77;23.33;;;9.30;91.70;;;;;;4954351;28;20197;-78
2023/03/04 02:49:47;;;;;;;53.50;23.00;;;9.40;91.60;;;;;;4957566;28;20557;-78
2023/03/04 02:52:20;;;;;;;54.50;23.57;;;9.40;92.00;;;;;;4958411;28;20577;-78
2023/03/04 02:54:49;;;;;;;53.20;23.97;;;9.50;91.60;;;;;;4890856;28;20257;-79
2023/03/04 02:57:19;;;;;;;47.67;22.53;;;9.50;91.50;;;;;;4954827;28;20198;-78
2023/03/04 02:59:48;;;;;;;51.90;23.87;;;9.50;91.50;;;;;;4954794;28;20202;-78
2023/03/04 03:02:16;;;;;;;41.93;22.80;;;9.60;91.40;;;;;;4949131;28;20223;-78
2023/03/04 03:04:45;;;;;;;47.20;23.70;;;9.60;91.40;;;;;;4954935;28;20206;-79
2023/03/04 03:07:13;;;;;;;47.80;23.43;;;9.60;91.30;;;;;;4959943;28;20202;-78
2023/03/04 03:09:42;;;;;;;44.80;22.57;;;9.60;91.20;;;;;;4950331;28;20246;-79
2023/03/04 03:12:10;;;;;;;45.27;22.27;;;9.70;91.20;;;;;;4947793;28;20253;-77
2023/03/04 03:14:40;;;;;;;48.53;23.07;;;9.70;91.20;;;;;;4951798;29;20679;-77
2023/03/04 03:17:09;;;;;;;47.43;23.67;;;9.70;91.10;;;;;;4952663;28;20239;-78
2023/03/04 03:19:37;;;;;;;55.63;26.65;;;9.70;91.10;;;;;;4946739;29;20449;-77
2023/03/04 03:22:06;;;;;;;52.93;24.37;;;9.70;91.20;;;;;;4951772;28;20236;-79
2023/03/04 03:24:34;;;;;;;50.13;22.10;;;9.70;91.20;;;;;;4962029;28;20202;-78
2023/03/04 03:27:03;;;;;;;50.30;23.93;;;9.70;91.10;;;;;;4955896;28;20273;-78
2023/03/04 03:29:31;;;;;;;50.17;24.03;;;9.70;91.10;;;;;;4952106;28;20253;-78
2023/03/04 03:32:01;;;;;;;51.23;23.10;;;9.80;91.10;;;;;;4957184;28;20237;-78
2023/03/04 03:34:29;;;;;;;47.53;22.63;;;9.80;91.00;;;;;;4957412;28;20947;-78
2023/03/04 03:36:58;;;;;;;49.90;23.77;;;9.80;91.00;;;;;;4960850;28;20218;-78
2023/03/04 03:39:26;;;;;;;50.53;24.33;;;9.80;91.00;;;;;;4950435;28;20198;-77
2023/03/04 03:41:55;;;;;;;53.30;23.93;;;9.70;90.90;;;;;;4961840;28;20210;-78
2023/03/04 03:44:23;;;;;;;53.60;23.93;;;9.80;90.90;;;;;;4953273;28;20564;-78
2023/03/04 03:46:51;;;;;;;54.13;24.50;;;9.80;90.90;;;;;;4953460;28;20203;-78
2023/03/04 03:49:21;;;;;;;53.43;24.47;;;9.80;90.90;;;;;;4957358;28;20682;-77
2023/03/04 03:51:50;;;;;;;56.93;24.87;;;9.80;90.90;;;;;;4955916;28;20617;-78
2023/03/04 03:54:20;;;;;;;57.60;24.37;;;9.80;90.90;;;;;;4957209;28;20206;-77
2023/03/04 03:56:48;;;;;;;53.13;25.03;;;9.80;90.90;;;;;;4967934;28;20194;-78
2023/03/04 03:59:16;;;;;;;53.80;25.03;;;9.80;90.90;;;;;;4966110;28;20211;-77
2023/03/04 04:01:45;;;;;;;55.43;23.70;;;9.80;90.90;;;;;;4965375;28;20218;-78
2023/03/04 04:04:13;;;;;;;54.53;23.63;;;9.80;90.90;;;;;;4956151;28;20233;-78
2023/03/04 04:06:43;;;;;;;49.80;24.20;;;9.80;90.90;;;;;;4955060;28;20238;-78
2023/03/04 04:09:12;;;;;;;48.43;23.80;;;9.80;90.90;;;;;;4958642;28;20610;-77
2023/03/04 04:11:40;;;;;;;55.80;24.70;;;9.80;90.90;;;;;;4962569;28;20715;-78
2023/03/04 04:14:11;;;;;;;53.37;23.93;;;9.70;90.90;;;;;;4955962;28;20209;-77
2023/03/04 04:16:39;;;;;;;45.70;22.90;;;9.80;90.90;;;;;;4969098;28;20271;-78
2023/03/04 04:19:08;;;;;;;46.30;22.73;;;9.70;90.90;;;;;;4967018;28;20560;-78
2023/03/04 04:21:36;;;;;;;52.83;24.40;;;9.70;90.80;;;;;;4955304;28;20210;-79
2023/03/04 04:24:06;;;;;;;49.03;22.73;;;9.70;90.80;;;;;;4959718;28;20411;-79
2023/03/04 04:26:34;;;;;;;53.17;23.83;;;9.70;90.80;;;;;;4959974;28;20330;-78
2023/03/04 04:29:03;;;;;;;50.07;24.03;;;9.80;90.80;;;;;;4963280;28;20286;-78
2023/03/04 04:31:32;;;;;;;52.67;24.00;;;9.80;90.90;;;;;;4953957;28;20198;-78
2023/03/04 04:34:01;;;;;;;47.13;22.30;;;9.90;90.90;;;;;;4962555;28;20268;-78
2023/03/04 04:36:29;;;;;;;54.67;24.70;;;9.90;90.90;;;;;;4954175;28;20628;-78
2023/03/04 04:38:57;;;;;;;44.83;21.47;;;10.00;90.90;;;;;;4954065;28;20198;-77
2023/03/04 04:41:31;;;;;;;45.53;21.57;;;10.10;90.80;;;;;;4959576;28;20202;-77
2023/03/04 04:44:00;;;;;;;49.73;22.27;;;10.10;90.70;;;;;;4950822;28;20619;-79
2023/03/04 04:46:28;;;;;;;52.17;25.07;;;10.10;90.60;;;;;;4951027;28;20445;-79
2023/03/04 04:48:57;;;;;;;49.87;23.70;;;10.20;90.60;;;;;;4969595;28;20460;-78
2023/03/04 04:51:25;;;;;;;49.23;22.43;;;10.20;90.60;;;;;;4957227;28;20232;-78
2023/03/04 04:53:54;;;;;;;51.80;22.67;;;10.20;90.50;;;;;;4955883;28;20198;-78
2023/03/04 04:56:25;;;;;;;52.73;23.77;;;10.20;90.40;;;;;;4953353;28;20261;-78
2023/03/04 04:58:56;;;;;;;44.97;22.57;;;10.30;90.40;;;;;;4955047;28;20273;-77
2023/03/04 05:01:26;;;;;;;47.87;23.53;;;10.30;90.30;;;;;;4954832;28;20203;-79
2023/03/04 05:03:54;;;;;;;54.70;24.60;;;10.30;90.30;;;;;;4947043;28;20215;-78
2023/03/04 05:06:24;;;;;;;53.13;24.17;;;10.30;90.20;;;;;;4951875;28;20206;-78
2023/03/04 05:08:53;;;;;;;48.13;23.20;;;10.40;90.10;;;;;;4957183;28;20322;-77
2023/03/04 05:11:21;;;;;;;49.87;23.80;;;10.40;90.10;;;;;;4952515;28;20226;-78
2023/03/04 05:13:50;;;;;;;49.60;24.97;;;10.30;90.00;;;;;;4961020;28;20202;-78
2023/03/04 05:16:20;;;;;;;48.50;23.33;;;10.30;90.00;;;;;;4955882;28;20210;-79
2023/03/04 05:18:48;;;;;;;50.20;23.57;;;10.30;90.00;;;;;;4956193;28;20603;-78
2023/03/04 05:21:17;;;;;;;49.80;24.53;;;10.30;89.90;;;;;;4962579;28;20226;-78
2023/03/04 05:23:46;;;;;;;51.23;25.67;;;10.30;89.90;;;;;;4951222;28;20222;-79
2023/03/04 05:26:17;;;;;;;50.37;22.77;;;10.30;89.90;;;;;;4957550;28;20195;-78
2023/03/04 05:28:46;;;;;;;55.50;24.07;;;10.30;90.00;;;;;;4966687;28;20622;-78
2023/03/04 05:31:15;;;;;;;54.50;23.47;;;10.30;90.00;;;;;;4956602;28;20580;-77
2023/03/04 05:33:45;;;;;;;47.23;23.53;;;10.30;90.00;;;;;;4954684;28;20682;-78
2023/03/04 05:36:13;;;;;;;51.37;23.77;;;10.30;90.00;;;;;;4952883;28;20202;-78
2023/03/04 05:38:41;;;;;;;53.40;25.50;;;10.30;90.00;;;;;;4957793;28;22389;-78
2023/03/04 05:41:10;;;;;;;52.97;24.37;;;10.30;90.00;;;;;;4952317;28;20261;-78
2023/03/04 05:43:41;;;;;;;50.40;24.30;;;10.30;90.10;;;;;;4949636;28;20215;-78
2023/03/04 05:46:13;;;;;;;50.67;23.93;;;10.40;90.10;;;;;;4948709;28;20248;-79
2023/03/04 05:48:44;;;;;;;52.10;23.83;;;10.40;90.10;;;;;;4945422;28;20245;-80
2023/03/04 05:51:12;;;;;;;46.23;24.10;;;10.40;90.10;;;;;;4957272;28;20651;-79
2023/03/04 05:53:41;;;;;;;50.20;23.70;;;10.40;90.10;;;;;;4948233;28;20724;-79
2023/03/04 05:56:11;;;;;;;48.70;23.00;;;10.40;90.10;;;;;;4952089;28;20199;-78
2023/03/04 05:58:39;;;;;;;53.33;24.37;;;10.50;90.10;;;;;;4954948;28;20268;-78
2023/03/04 06:01:08;;;;;;;47.40;23.77;;;10.40;90.00;;;;;;4948087;28;20202;-79
2023/03/04 06:03:37;;;;;;;54.20;24.40;;;10.50;90.00;;;;;;4954352;28;20218;-78
2023/03/04 06:06:07;;;;;;;49.40;24.77;;;10.40;90.00;;;;;;4945482;28;20217;-80
2023/03/04 06:08:35;;;;;;;50.03;23.63;;;10.50;90.00;;;;;;4951205;28;20205;-78
2023/03/04 06:11:04;;;;;;;52.50;25.60;;;10.50;90.00;;;;;;4952690;28;20310;-79
2023/03/04 06:13:33;;;;;;;51.00;23.30;;;10.50;89.80;;;;;;4955243;28;20209;-78
2023/03/04 06:16:02;;;;;;;53.13;23.97;;;10.60;89.90;;;;;;4957627;28;20202;-78
2023/03/04 06:18:30;;;;;;;53.27;23.67;;;10.60;90.20;;;;;;4950516;28;20194;-78
2023/03/04 06:21:00;;;;;;;57.70;25.27;;;10.70;89.80;;;;;;4945315;28;20207;-79
2023/03/04 06:23:31;;;;;;;51.40;26.03;;;10.70;89.70;;;;;;4951202;28;20214;-78
2023/03/04 06:26:00;;;;;;;53.30;25.30;;;10.70;89.70;;;;;;4951620;28;20659;-78
2023/03/04 06:28:29;;;;;;;49.40;23.27;;;10.80;90.10;;;;;;4960116;28;20210;-78
2023/03/04 06:30:58;;;;;;;49.93;22.97;;;10.90;89.60;;;;;;4958404;28;20243;-79
2023/03/04 06:33:26;;;;;;;51.00;23.23;;;10.90;89.70;;;;;;4953116;28;20195;-78
2023/03/04 06:35:56;;;;;;;47.23;24.30;;;10.90;89.30;;;;;;4949504;28;20229;-79
2023/03/04 06:38:25;;;;;;;49.93;24.17;;;11.00;89.20;;;;;;4949262;28;20198;-79
2023/03/04 06:40:56;;;;;;;49.00;25.23;;;11.00;88.90;;;;;;4952113;28;20199;-77
2023/03/04 06:43:24;;;;;;;51.97;25.50;;;11.00;88.90;;;;;;4948033;28;20258;-79
2023/03/04 06:45:53;;;;;;;47.60;24.63;;;11.00;88.40;;;;;;4953399;28;20300;-79
2023/03/04 06:48:21;;;;;;;49.17;24.23;;;11.10;88.40;;;;;;4948059;28;20202;-78
2023/03/04 06:50:50;;;;;;;52.90;24.70;;;11.10;88.10;;;;;;4955267;28;20665;-78
2023/03/04 06:53:18;;;;;;;46.40;23.10;;;11.10;87.90;;;;;;4942062;28;20574;-79
2023/03/04 06:55:48;;;;;;;44.40;22.07;;;11.20;87.50;;;;;;4946635;28;20335;-79
2023/03/04 06:58:18;;;;;;;42.67;21.97;;;11.20;87.20;;;;;;4946864;28;20210;-78
2023/03/04 07:00:46;;;;;;;46.47;21.60;;;11.20;87.10;;;;;;4946744;28;20273;-78
2023/03/04 07:03:14;;;;;;;45.50;23.17;;;11.30;86.90;;;;;;4947271;28;20297;-79
2023/03/04 07:05:43;;;;;;;43.83;22.10;;;11.30;86.60;;;;;;4949435;28;20257;-79
2023/03/04 07:08:12;;;;;;;47.77;21.67;;;11.30;86.50;;;;;;4947714;28;20268;-79
2023/03/04 07:10:40;;;;;;;45.57;23.83;;;11.30;86.10;;;;;;4947116;28;20289;-78
2023/03/04 07:13:08;;;;;;;49.93;26.03;;;11.30;86.00;;;;;;4953517;28;20197;-79
2023/03/04 07:15:40;;;;;;;51.60;25.23;;;11.40;85.80;;;;;;4961787;28;20292;-79
2023/03/04 07:18:08;;;;;;;46.73;22.90;;;11.40;85.50;;;;;;4951611;28;20198;-79
2023/03/04 07:20:37;;;;;;;54.20;25.77;;;11.40;85.70;;;;;;4947470;28;20202;-80
2023/03/04 07:23:06;;;;;;;52.03;25.97;;;11.50;85.90;;;;;;4955002;28;20214;-78
2023/03/04 07:25:34;;;;;;;51.00;25.67;;;11.50;85.90;;;;;;4951754;28;20687;-79
2023/03/04 07:28:03;;;;;;;58.47;26.73;;;11.50;86.00;;;;;;4948502;28;20277;-78
2023/03/04 07:30:31;;;;;;;51.30;25.63;;;11.60;86.20;;;;;;4955503;28;20236;-77
2023/03/04 07:33:01;;;;;;;56.20;27.60;;;11.50;86.20;;;;;;4953332;28;20202;-77
2023/03/04 07:35:29;;;;;;;63.13;29.52;;;11.50;86.30;;;;;;4950231;28;20442;-76
2023/03/04 07:37:58;;;;;;;57.73;26.87;;;11.50;86.90;;;;;;4956906;28;20208;-77
2023/03/04 07:40:26;;;;;;;56.30;27.23;;;11.40;86.90;;;;;;4956548;28;20319;-77
2023/03/04 07:42:56;;;;;;;54.97;26.37;;;11.40;87.10;;;;;;4952862;28;20198;-76
2023/03/04 07:45:24;;;;;;;65.97;27.07;;;11.30;87.40;;;;;;4955423;28;20218;-75
2023/03/04 07:47:53;;;;;;;55.63;25.50;;;11.30;87.60;;;;;;4950999;28;20198;-76
2023/03/04 07:50:23;;;;;;;62.03;27.93;;;11.30;87.70;;;;;;4964187;28;20660;-76
2023/03/04 07:52:52;;;;;;;65.30;29.30;;;11.30;87.90;;;;;;4955703;28;20219;-76
2023/03/04 07:55:20;;;;;;;59.00;27.47;;;11.30;87.80;;;;;;4958674;28;20249;-79
2023/03/04 07:57:49;;;;;;;55.63;26.53;;;11.30;87.80;;;;;;4953406;28;20243;-75
2023/03/04 08:00:18;;;;;;;66.13;28.30;;;11.30;88.00;;;;;;4959574;28;21003;-77
2023/03/04 08:02:47;;;;;;;60.53;28.63;;;11.30;87.90;;;;;;4951679;28;20250;-75
2023/03/04 08:05:15;;;;;;;64.00;30.20;;;11.40;88.10;;;;;;4945173;28;20249;-77
2023/03/04 08:07:45;;;;;;;61.27;29.20;;;11.40;88.00;;;;;;4943873;28;20242;-76
2023/03/04 08:10:13;;;;;;;61.07;30.47;;;11.30;87.60;;;;;;4943523;28;20264;-77
2023/03/04 08:12:42;;;;;;;65.37;30.20;;;11.40;88.00;;;;;;4952897;28;20607;-76
2023/03/04 08:15:14;;;;;;;65.73;29.07;;;11.30;88.00;;;;;;4954739;28;20195;-75
2023/03/04 08:17:42;;;;;;;61.80;30.10;;;11.30;88.00;;;;;;4954132;28;20222;-77
2023/03/04 08:20:12;;;;;;;68.10;31.80;;;11.30;88.00;;;;;;4955818;28;20224;-76
2023/03/04 08:22:41;;;;;;;65.97;30.07;;;11.30;87.80;;;;;;4953515;28;20202;-78
2023/03/04 08:25:11;;;;;;;61.47;29.70;;;11.20;87.90;;;;;;4957616;28;20300;-76
2023/03/04 08:27:39;;;;;;;62.70;29.70;;;11.20;88.00;;;;;;4951602;28;20202;-76
2023/03/04 08:30:09;;;;;;;71.10;31.30;;;11.20;88.00;;;;;;4949242;28;20719;-76
2023/03/04 08:32:37;;;;;;;64.80;30.97;;;11.10;88.10;;;;;;4948265;28;20870;-76
2023/03/04 08:35:06;;;;;;;66.70;30.20;;;11.10;88.30;;;;;;4963202;28;20190;-76
2023/03/04 08:37:34;;;;;;;52.80;25.10;;;11.10;88.50;;;;;;4958878;28;20268;-77
2023/03/04 08:40:07;;;;;;;53.67;25.60;;;11.00;88.30;;;;;;4933990;29;20199;-76
2023/03/04 08:42:36;;;;;;;54.33;24.63;;;11.00;88.30;;;;;;4950420;28;20653;-76
2023/03/04 08:45:06;;;;;;;51.60;23.13;;;11.00;88.50;;;;;;4953822;28;20218;-74
2023/03/04 08:47:34;;;;;;;55.43;23.77;;;11.00;88.70;;;;;;4952338;28;20643;-76
2023/03/04 08:50:02;;;;;;;47.63;22.70;;;11.00;89.00;;;;;;4950016;28;20640;-75
2023/03/04 08:52:31;;;;;;;49.77;21.97;;;11.00;89.10;;;;;;4945821;28;20202;-77
2023/03/04 08:54:59;;;;;;;50.87;22.83;;;11.00;89.20;;;;;;4953481;28;20221;-76
2023/03/04 08:57:28;;;;;;;55.30;22.43;;;11.00;89.60;;;;;;4952873;28;20812;-76
2023/03/04 08:59:58;;;;;;;46.03;20.67;;;11.00;89.70;;;;;;4955222;28;20265;-76
2023/03/04 09:02:26;;;;;;;41.10;20.37;;;11.00;89.70;;;;;;4946195;28;20209;-79
2023/03/04 09:04:55;;;;;;;45.47;20.30;;;11.10;89.80;;;;;;4953555;29;20222;-76
2023/03/04 09:07:24;;;;;;;47.60;19.67;;;11.00;89.70;;;;;;4950472;28;20253;-76
2023/03/04 09:09:52;;;;;;;45.73;19.23;;;11.00;89.90;;;;;;4952926;28;20194;-77
2023/03/04 09:12:20;;;;;;;44.83;18.60;;;11.00;89.90;;;;;;4907856;29;20263;-75
2023/03/04 09:14:49;;;;;;;46.47;19.80;;;11.00;89.90;;;;;;4911677;29;20231;-75
2023/03/04 09:17:37;;;;;;;42.73;19.63;;;11.00;90.00;;;;;;4912169;29;20290;-76
2023/03/04 09:20:07;;;;;;;50.47;20.20;;;11.00;89.90;;;;;;4921683;29;20530;-76
2023/03/04 09:22:38;;;;;;;52.83;21.63;;;10.90;90.10;;;;;;4907414;29;20617;-76
2023/03/04 09:25:08;;;;;;;42.57;18.20;;;10.90;90.10;;;;;;4905965;29;20255;-77
2023/03/04 09:27:40;;;;;;;41.93;17.80;;;11.00;90.10;;;;;;4906862;29;20278;-75
2023/03/04 09:30:09;;;;;;;40.93;17.53;;;10.90;90.10;;;;;;4919289;29;20204;-77
2023/03/04 09:32:41;;;;;;;34.50;15.00;;;11.00;90.10;;;;;;4904903;29;20261;-76
2023/03/04 09:35:10;;;;;;;41.13;16.73;;;11.00;90.20;;;;;;4903461;29;20227;-76
2023/03/04 09:37:38;;;;;;;32.87;14.27;;;11.00;90.20;;;;;;4904843;29;20216;-77
2023/03/04 09:40:16;;;;;;;28.70;13.37;;;11.00;90.00;;;;;;4915394;29;20687;-78
2023/03/04 09:42:48;;;;;;;28.53;12.40;;;11.10;90.10;;;;;;4912774;29;20202;-78
2023/03/04 09:45:21;;;;;;;27.83;13.77;;;11.10;90.00;;;;;;4916629;29;20225;-77
2023/03/04 09:47:53;;;;;;;26.03;12.07;;;11.10;90.00;;;;;;4913083;29;20200;-78
2023/03/04 09:50:22;;;;;;;28.67;14.13;;;11.10;90.00;;;;;;4911172;29;20210;-78
2023/03/04 09:53:06;;;;;;;24.87;12.70;;;11.10;90.00;;;;;;4917320;29;20215;-77
2023/03/04 09:55:39;;;;;;;29.67;15.40;;;11.20;89.60;;;;;;4917405;29;20195;-77
2023/03/04 09:58:20;;;;;;;27.80;12.60;;;11.10;89.70;;;;;;4913621;29;20610;-78
2023/03/04 10:00:56;;;;;;;26.67;13.17;;;11.20;89.40;;;;;;4932424;29;20227;-78
2023/03/04 10:03:33;;;;;;;24.80;12.13;;;11.20;89.30;;;;;;4921718;29;20206;-78
2023/03/04 10:06:05;;;;;;;26.83;13.30;;;11.20;89.40;;;;;;4918931;29;20212;-78
2023/03/04 10:08:43;;;;;;;25.10;12.67;;;11.30;89.70;;;;;;4925007;29;20199;-79
2023/03/04 10:11:17;;;;;;;24.83;12.80;;;11.40;89.60;;;;;;4941938;29;20230;-78
2023/03/04 10:13:54;;;;;;;28.17;12.67;;;11.50;89.10;;;;;;4964736;28;20195;-77
2023/03/04 10:16:27;;;;;;;29.83;14.10;;;11.50;88.60;;;;;;4959502;28;20229;-79
2023/03/04 10:18:59;;;;;;;25.80;12.33;;;11.60;88.70;;;;;;4958057;28;20181;-81
2023/03/04 10:21:32;;;;;;;27.10;13.17;;;11.60;88.80;;;;;;4962203;28;20201;-78
2023/03/04 10:24:09;;;;;;;30.37;14.20;;;11.70;88.90;;;;;;4966010;28;20202;-79
2023/03/04 10:26:38;;;;;;;23.40;12.43;;;11.80;88.80;;;;;;4964578;29;20211;-79
2023/03/04 10:29:08;;;;;;;25.93;13.53;;;11.90;88.00;;;;;;4956488;28;20213;-79
2023/03/04 10:31:38;;;;;;;28.87;14.30;;;11.90;87.70;;;;;;4958152;28;20205;-77
2023/03/04 10:34:10;;;;;;;32.73;16.93;;;12.00;87.50;;;;;;4951643;28;20206;-78
2023/03/04 10:36:53;;;;;;;27.20;12.90;;;11.90;86.50;;;;;;4961898;28;20194;-78
2023/03/04 10:39:26;;;;;;;26.17;12.60;;;12.00;86.40;;;;;;4957353;28;20932;-76
2023/03/04 10:41:58;;;;;;;27.97;12.67;;;12.00;86.30;;;;;;4949699;28;20198;-77
2023/03/04 10:44:27;;;;;;;30.37;13.83;;;12.10;86.70;;;;;;4946669;28;20193;-77
2023/03/04 10:46:58;;;;;;;29.17;13.33;;;12.10;86.30;;;;;;4944970;28;20320;-77
2023/03/04 10:49:29;;;;;;;31.47;13.90;;;12.20;86.40;;;;;;4940729;28;20203;-78
2023/03/04 10:52:02;;;;;;;24.37;12.83;;;12.30;86.10;;;;;;4953114;28;20198;-78
2023/03/04 10:54:35;;;;;;;26.27;13.83;;;12.30;86.10;;;;;;4941663;28;20210;-76
2023/03/04 10:57:05;;;;;;;26.93;13.80;;;12.50;85.70;;;;;;4945247;28;20203;-75
2023/03/04 10:59:52;;;;;;;27.67;13.77;;;12.50;85.00;;;;;;4949621;29;20667;-76
2023/03/04 11:02:23;;;;;;;33.30;15.23;;;12.60;84.90;;;;;;4954413;28;20198;-80
2023/03/04 11:04:56;;;;;;;32.67;15.57;;;12.50;84.70;;;;;;4945020;28;20199;-77
2023/03/04 11:07:26;;;;;;;33.47;15.00;;;12.50;85.00;;;;;;4944852;28;20219;-76
2023/03/04 11:09:55;;;;;;;30.60;14.00;;;12.60;85.20;;;;;;4949635;28;20202;-75
2023/03/04 11:12:34;;;;;;;36.27;15.97;;;12.70;84.80;;;;;;4945423;28;20218;-77
2023/03/04 11:15:04;;;;;;;29.33;14.93;;;12.70;84.90;;;;;;4949135;28;20210;-77
2023/03/04 11:17:43;;;;;;;30.80;15.73;;;12.70;84.60;;;;;;4951486;28;20525;-76
2023/03/04 11:20:23;;;;;;;35.07;17.53;;;12.70;84.60;;;;;;4950940;28;20257;-75
2023/03/04 11:22:53;;;;;;;36.30;16.73;;;12.80;85.00;;;;;;4950551;28;20260;-76
2023/03/04 11:25:26;;;;;;;31.70;15.67;;;12.80;85.00;;;;;;4951645;28;20229;-75
2023/03/04 11:27:58;;;;;;;35.20;16.70;;;13.00;85.30;;;;;;4947009;28;20702;-77
2023/03/04 11:30:36;;;;;;;34.90;17.10;;;13.00;85.00;;;;;;4949243;28;20198;-78
2023/03/04 11:33:21;;;;;;;39.90;16.83;;;13.00;83.60;;;;;;4946820;28;20198;-75
2023/03/04 11:36:21;;;;;;;37.90;18.53;;;13.10;83.40;;;;;;4946520;28;20194;-76
2023/03/04 11:38:51;;;;;;;36.80;17.97;;;13.20;84.00;;;;;;4946303;28;20660;-78
2023/03/04 11:41:29;;;;;;;35.40;16.83;;;13.20;83.80;;;;;;4944974;28;20632;-77
2023/03/04 11:43:58;;;;;;;36.17;18.60;;;13.30;83.10;;;;;;4939829;28;20198;-76
2023/03/04 11:46:53;;;;;;;39.00;17.90;;;13.40;82.70;;;;;;4944062;28;20254;-74
2023/03/04 11:50:01;;;;;;;39.63;19.60;;;13.50;83.00;;;;;;4939310;28;20202;-76
2023/03/04 11:52:59;;;;;;;40.97;19.20;;;13.40;82.00;;;;;;4941316;29;20199;-75
2023/03/04 11:55:38;;;;;;;46.87;20.47;;;13.50;82.00;;;;;;4945115;28;20206;-74
2023/03/04 11:58:23;;;;;;;43.10;21.40;;;13.60;81.80;;;;;;4955551;28;20214;-78
2023/03/04 12:00:59;;;;;;;48.23;21.43;;;13.60;81.00;;;;;;4957201;28;20206;-74
2023/03/04 12:04:06;;;;;;;45.73;21.93;;;13.70;81.40;;;;;;4916767;29;20194;-75
2023/03/04 12:06:45;;;;;;;48.07;23.17;;;13.80;80.40;;;;;;4949715;28;20313;-76
2023/03/04 12:09:32;;;;;;;50.23;23.60;;;13.90;80.20;;;;;;4951072;29;20257;-75
2023/03/04 12:12:14;;;;;;;40.20;21.70;;;14.00;80.60;;;;;;4952733;28;20234;-75
2023/03/04 12:14:52;;;;;;;50.73;23.00;;;14.00;80.10;;;;;;4958932;28;20208;-76
2023/03/04 12:17:39;;;;;;;50.30;24.40;;;14.10;78.90;;;;;;4954258;28;20199;-75
2023/03/04 12:20:40;;;;;;;55.93;24.13;;;14.20;78.70;;;;;;4957347;28;20194;-76
2023/03/04 12:23:27;;;;;;;55.10;24.50;;;14.20;78.90;;;;;;4949312;28;20568;-76
2023/03/04 12:26:02;;;;;;;49.53;23.93;;;14.30;78.60;;;;;;4957659;28;20190;-76
2023/03/04 12:28:53;;;;;;;51.93;23.23;;;14.40;78.90;;;;;;4959238;28;20256;-75
2023/03/04 12:31:34;;;;;;;48.30;21.10;;;14.50;78.60;;;;;;4957396;28;20209;-75
2023/03/04 12:34:30;;;;;;;47.87;22.70;;;14.50;77.00;;;;;;4951353;28;20202;-75
2023/03/04 12:37:24;;;;;;;52.33;23.50;;;14.60;76.10;;;;;;4932751;28;20195;-75
2023/03/04 12:40:06;;;;;;;46.97;23.00;;;14.60;75.50;;;;;;4950508;28;20197;-75
2023/03/04 12:42:46;;;;;;;55.53;23.40;;;14.70;75.60;;;;;;4945740;28;20659;-76
2023/03/04 12:45:24;;;;;;;50.03;22.70;;;14.80;75.60;;;;;;4946388;28;20643;-77
2023/03/04 12:48:01;;;;;;;60.20;25.07;;;14.80;74.90;;;;;;4952046;28;20229;-75
2023/03/04 12:50:37;;;;;;;59.23;23.33;;;14.90;74.60;;;;;;4956580;28;20198;-76